Time;durP1;ratioP1;P1;durP2;ratioP2;P2;SDS_P1;SDS_P2;PMS_P1;PMS_P2;Temp;Humidity;BMP_temperature;BMP_pressure;BME280_temperature;BME280_humidity;BME280_pressure;Samples;Min_cycle;Max_cycle;Signal;HPM_P1;HPM_P2
2022/03/13 00:00:20;;;;;;;15.15;6.15;;;6.60;39.70;;;;;;5011713;28;20030;-71
2022/03/13 00:02:46;;;;;;;12.93;6.47;;;6.60;39.50;;;;;;5012006;28;20434;-71
2022/03/13 00:05:14;;;;;;;14.45;6.40;;;6.60;39.50;;;;;;5010653;28;20117;-71
2022/03/13 00:07:41;;;;;;;13.60;6.40;;;6.50;39.60;;;;;;5012134;28;20470;-71
2022/03/13 00:10:08;;;;;;;15.57;6.28;;;6.40;40.40;;;;;;5011634;28;20388;-71
2022/03/13 00:12:34;;;;;;;14.13;6.53;;;6.30;40.40;;;;;;5011698;28;20034;-70
2022/03/13 00:15:05;;;;;;;16.38;6.15;;;6.30;40.40;;;;;;5011681;28;20042;-70
2022/03/13 00:17:31;;;;;;;16.42;6.63;;;6.30;40.20;;;;;;5011525;28;20034;-70
2022/03/13 00:19:59;;;;;;;16.08;5.60;;;6.30;40.10;;;;;;5010544;28;20084;-71
2022/03/13 00:22:25;;;;;;;12.27;5.78;;;6.30;40.30;;;;;;5010843;28;20056;-71
2022/03/13 00:24:50;;;;;;;13.27;6.50;;;6.10;40.20;;;;;;5011466;28;20058;-70
2022/03/13 00:27:16;;;;;;;12.60;6.18;;;6.00;40.50;;;;;;5011140;28;20022;-70
2022/03/13 00:29:42;;;;;;;18.35;6.65;;;6.00;40.10;;;;;;5011486;28;20026;-71
2022/03/13 00:32:08;;;;;;;11.43;5.68;;;6.00;40.90;;;;;;5011351;28;20033;-70
2022/03/13 00:34:34;;;;;;;13.10;6.72;;;6.00;41.00;;;;;;5011757;28;20325;-69
2022/03/13 00:37:00;;;;;;;19.85;6.78;;;5.90;40.60;;;;;;5011403;28;20080;-71
2022/03/13 00:39:27;;;;;;;14.48;6.18;;;5.90;40.70;;;;;;5010144;28;20435;-70
2022/03/13 00:41:52;;;;;;;12.73;6.22;;;5.80;41.10;;;;;;5011475;28;20499;-70
2022/03/13 00:44:18;;;;;;;16.45;6.00;;;5.80;41.20;;;;;;5010093;28;20038;-70
2022/03/13 00:46:45;;;;;;;22.08;6.18;;;5.90;41.40;;;;;;5011671;28;20044;-71
2022/03/13 00:49:11;;;;;;;16.63;6.57;;;5.80;41.70;;;;;;5010653;28;20069;-70
2022/03/13 00:51:37;;;;;;;14.32;6.30;;;6.00;41.30;;;;;;5010976;28;20475;-70
2022/03/13 00:54:04;;;;;;;15.48;6.72;;;6.00;41.60;;;;;;5011275;28;20038;-72
2022/03/13 00:56:30;;;;;;;19.42;6.72;;;5.90;41.20;;;;;;5011055;28;20036;-70
2022/03/13 00:58:55;;;;;;;19.90;6.78;;;5.80;40.90;;;;;;5010929;28;20021;-70
2022/03/13 01:01:21;;;;;;;13.45;6.35;;;5.70;41.40;;;;;;5011495;28;20014;-73
2022/03/13 01:03:50;;;;;;;16.42;6.68;;;5.70;41.80;;;;;;5011078;28;20123;-71
2022/03/13 01:06:17;;;;;;;16.88;6.75;;;5.70;42.20;;;;;;5009889;28;20034;-71
2022/03/13 01:08:44;;;;;;;15.05;6.15;;;5.70;42.70;;;;;;5011034;28;20046;-70
2022/03/13 01:11:11;;;;;;;14.70;6.75;;;5.60;42.70;;;;;;5013536;28;20030;-71
2022/03/13 01:13:36;;;;;;;12.40;5.72;;;5.50;42.40;;;;;;5015387;28;20026;-70
2022/03/13 01:16:12;;;;;;;16.35;7.13;;;5.50;42.20;;;;;;5015098;28;20428;-70
2022/03/13 01:18:47;;;;;;;17.88;6.80;;;5.50;42.10;;;;;;5014887;28;20081;-70
2022/03/13 01:21:13;;;;;;;16.88;6.53;;;5.50;42.10;;;;;;5015042;28;20468;-71
2022/03/13 01:23:40;;;;;;;15.32;6.47;;;5.40;42.80;;;;;;5014861;28;20109;-69
2022/03/13 01:26:39;;;;;;;18.65;6.18;;;5.50;42.80;;;;;;5013513;28;20030;-69
2022/03/13 01:29:08;;;;;;;17.70;6.72;;;5.40;42.50;;;;;;5013102;28;20049;-70
2022/03/13 01:31:36;;;;;;;13.80;6.75;;;5.30;43.80;;;;;;5015621;28;20061;-70
2022/03/13 01:34:04;;;;;;;20.98;6.38;;;5.30;42.40;;;;;;5014473;28;20030;-69
2022/03/13 01:36:30;;;;;;;17.05;6.63;;;5.20;42.70;;;;;;5013539;28;20041;-71
2022/03/13 01:38:57;;;;;;;13.95;6.72;;;5.20;43.20;;;;;;5013167;28;20033;-70
2022/03/13 01:41:24;;;;;;;12.52;6.50;;;5.20;42.80;;;;;;5014549;28;20597;-70
2022/03/13 01:43:50;;;;;;;19.17;6.97;;;5.20;43.40;;;;;;5014740;28;20057;-69
2022/03/13 01:46:17;;;;;;;17.10;7.05;;;5.30;43.30;;;;;;5014495;28;20032;-70
2022/03/13 01:49:03;;;;;;;18.45;7.43;;;5.20;42.70;;;;;;5014269;28;20061;-69
2022/03/13 01:51:30;;;;;;;14.40;6.53;;;5.20;42.60;;;;;;5014292;28;20045;-70
2022/03/13 01:53:59;;;;;;;14.93;6.70;;;5.20;42.70;;;;;;5014227;28;20034;-70
2022/03/13 01:56:25;;;;;;;15.52;6.93;;;5.10;42.90;;;;;;5014105;28;20030;-70
2022/03/13 01:58:54;;;;;;;18.13;6.82;;;5.10;42.90;;;;;;5013359;28;20018;-70
2022/03/13 02:01:22;;;;;;;17.10;6.93;;;5.10;42.90;;;;;;5014254;28;20034;-70
2022/03/13 02:03:48;;;;;;;16.17;7.15;;;5.00;43.20;;;;;;5014061;28;20049;-70
2022/03/13 02:06:15;;;;;;;16.98;7.30;;;5.10;43.30;;;;;;5013028;28;20472;-70
2022/03/13 02:08:40;;;;;;;16.07;6.70;;;5.00;43.80;;;;;;5012928;28;20120;-70
2022/03/13 02:11:06;;;;;;;20.85;7.32;;;4.90;44.60;;;;;;5013756;28;20112;-69
2022/03/13 02:13:33;;;;;;;14.63;6.40;;;4.90;45.10;;;;;;5014339;28;20026;-70
2022/03/13 02:15:58;;;;;;;17.45;6.55;;;4.80;44.30;;;;;;5013979;28;20030;-69
2022/03/13 02:18:24;;;;;;;18.13;7.47;;;4.80;44.10;;;;;;5013904;28;20026;-70
2022/03/13 02:20:49;;;;;;;19.40;6.97;;;4.80;44.00;;;;;;5012798;28;20033;-71
2022/03/13 02:23:24;;;;;;;20.58;6.38;;;4.90;44.60;;;;;;5012479;28;20034;-71
2022/03/13 02:25:56;;;;;;;16.15;6.68;;;4.80;44.30;;;;;;5014099;28;20052;-70
2022/03/13 02:28:24;;;;;;;13.52;6.53;;;4.70;44.70;;;;;;5013737;28;20045;-71
2022/03/13 02:30:51;;;;;;;17.85;7.53;;;4.60;44.60;;;;;;5013526;28;20080;-71
2022/03/13 02:33:19;;;;;;;25.42;7.35;;;4.70;44.70;;;;;;5012344;28;20114;-71
2022/03/13 02:35:52;;;;;;;18.45;6.75;;;4.50;44.70;;;;;;5021034;28;20463;-70
2022/03/13 02:38:18;;;;;;;16.88;7.40;;;4.50;44.50;;;;;;5033172;28;20411;-69
2022/03/13 02:40:43;;;;;;;18.20;7.57;;;4.50;44.70;;;;;;5033601;28;20105;-69
2022/03/13 02:43:09;;;;;;;19.15;7.68;;;4.50;44.70;;;;;;5033100;28;20420;-71
2022/03/13 02:45:37;;;;;;;22.42;7.60;;;4.40;44.40;;;;;;5033199;28;20033;-70
2022/03/13 02:48:06;;;;;;;17.77;8.02;;;4.40;44.70;;;;;;5032931;28;20042;-70
2022/03/13 02:50:32;;;;;;;21.00;7.97;;;4.30;44.80;;;;;;5032983;28;20092;-70
2022/03/13 02:52:58;;;;;;;16.52;7.50;;;4.20;44.70;;;;;;5032714;28;20462;-70
2022/03/13 02:55:23;;;;;;;26.70;8.18;;;4.20;45.00;;;;;;5032334;28;20440;-69
2022/03/13 02:57:49;;;;;;;20.42;7.80;;;4.20;45.20;;;;;;5031861;28;20026;-69
2022/03/13 03:00:17;;;;;;;24.10;7.80;;;4.20;45.20;;;;;;5031713;28;20399;-69
2022/03/13 03:02:43;;;;;;;21.43;7.43;;;4.20;44.80;;;;;;5033068;28;20068;-69
2022/03/13 03:05:09;;;;;;;24.80;7.90;;;4.20;45.40;;;;;;5032620;28;20269;-70
2022/03/13 03:07:36;;;;;;;15.75;7.05;;;4.20;45.50;;;;;;5031922;28;20124;-70
2022/03/13 03:10:04;;;;;;;20.55;7.72;;;4.20;45.40;;;;;;5032574;28;20022;-71
2022/03/13 03:12:29;;;;;;;23.52;7.63;;;4.20;45.50;;;;;;5031356;28;20344;-71
2022/03/13 03:14:56;;;;;;;21.20;7.93;;;4.10;45.10;;;;;;5032223;28;20124;-70
2022/03/13 03:17:21;;;;;;;19.33;7.80;;;4.10;45.70;;;;;;5031439;28;20095;-69
2022/03/13 03:19:47;;;;;;;17.50;6.72;;;4.10;46.10;;;;;;5032874;28;20108;-70
2022/03/13 03:22:14;;;;;;;24.13;7.53;;;4.00;46.80;;;;;;5032382;28;20418;-70
2022/03/13 03:24:39;;;;;;;22.60;8.60;;;4.00;46.60;;;;;;5031281;28;20317;-70
2022/03/13 03:27:05;;;;;;;23.92;8.05;;;4.00;46.40;;;;;;5032187;28;20036;-69
2022/03/13 03:29:31;;;;;;;24.17;8.27;;;4.00;45.90;;;;;;5032182;28;20026;-69
2022/03/13 03:31:57;;;;;;;17.25;7.78;;;4.00;45.80;;;;;;5032126;28;20056;-70
2022/03/13 03:34:25;;;;;;;17.95;8.13;;;4.20;45.70;;;;;;5032520;28;20359;-70
2022/03/13 03:36:52;;;;;;;;;;;4.10;45.60;;;;;;5032603;28;20113;-72
2022/03/13 03:39:20;;;;;;;19.17;7.57;;;4.20;45.50;;;;;;5032118;28;20254;-69
2022/03/13 03:41:48;;;;;;;24.35;7.78;;;4.20;45.80;;;;;;5030894;28;20511;-70
2022/03/13 03:44:14;;;;;;;16.73;7.75;;;4.10;46.00;;;;;;5031976;28;20061;-71
2022/03/13 03:46:41;;;;;;;22.85;8.55;;;4.20;45.80;;;;;;5032295;28;20111;-71
2022/03/13 03:49:07;;;;;;;17.87;7.67;;;4.10;45.90;;;;;;5030692;28;20041;-70
2022/03/13 03:51:32;;;;;;;17.50;8.00;;;4.00;46.50;;;;;;5031914;28;20045;-70
2022/03/13 03:53:58;;;;;;;17.42;7.78;;;3.90;46.80;;;;;;5031685;28;20349;-70
2022/03/13 03:56:24;;;;;;;15.32;7.40;;;3.90;46.30;;;;;;5031750;28;20518;-69
2022/03/13 03:58:49;;;;;;;17.02;7.80;;;3.90;46.30;;;;;;5031955;28;20018;-69
2022/03/13 04:01:16;;;;;;;19.67;7.53;;;4.00;46.40;;;;;;5031602;28;20037;-71
2022/03/13 04:03:41;;;;;;;24.73;8.50;;;4.00;46.10;;;;;;5030559;28;20037;-70
2022/03/13 04:06:07;;;;;;;17.27;8.23;;;4.00;45.90;;;;;;5031522;28;20481;-70
2022/03/13 04:08:33;;;;;;;17.58;8.40;;;4.20;45.90;;;;;;5031695;28;20041;-71
2022/03/13 04:11:00;;;;;;;23.77;8.70;;;4.00;46.50;;;;;;5031338;28;20460;-70
2022/03/13 04:13:26;;;;;;;23.38;7.60;;;3.90;46.90;;;;;;5031869;28;20410;-71
2022/03/13 04:15:52;;;;;;;21.23;7.75;;;4.00;46.70;;;;;;5031409;28;20037;-70
2022/03/13 04:18:18;;;;;;;18.40;8.10;;;4.10;46.30;;;;;;5031393;28;20470;-70
2022/03/13 04:20:44;;;;;;;20.17;7.63;;;4.00;46.60;;;;;;5031389;28;20103;-69
2022/03/13 04:23:10;;;;;;;18.67;7.57;;;4.00;47.00;;;;;;5030095;28;20522;-70
2022/03/13 04:25:37;;;;;;;27.48;8.18;;;4.00;47.40;;;;;;5031721;28;20039;-71
2022/03/13 04:28:04;;;;;;;17.13;7.82;;;4.00;46.80;;;;;;5029988;28;20026;-70
2022/03/13 04:30:31;;;;;;;19.60;7.43;;;4.10;46.20;;;;;;5030070;28;20036;-70
2022/03/13 04:33:00;;;;;;;22.08;8.70;;;4.00;46.70;;;;;;5030009;28;20443;-70
2022/03/13 04:35:26;;;;;;;22.42;8.48;;;4.00;47.20;;;;;;5030955;28;20037;-69
2022/03/13 04:37:52;;;;;;;21.67;7.68;;;3.90;46.90;;;;;;5030915;28;20040;-69
2022/03/13 04:40:17;;;;;;;17.98;7.43;;;4.00;46.70;;;;;;5030411;28;20104;-71
2022/03/13 04:42:43;;;;;;;17.27;7.22;;;4.00;46.70;;;;;;5031036;28;20125;-71
2022/03/13 04:45:09;;;;;;;15.88;7.38;;;4.00;46.90;;;;;;5030729;28;20025;-69
2022/03/13 04:47:35;;;;;;;17.17;7.78;;;4.00;46.10;;;;;;5030839;28;20481;-70
2022/03/13 04:50:01;;;;;;;22.80;8.02;;;4.00;46.00;;;;;;5030964;28;20029;-68
2022/03/13 04:52:27;;;;;;;16.00;8.00;;;4.00;47.00;;;;;;5031047;28;20038;-70
2022/03/13 04:54:53;;;;;;;21.38;8.27;;;3.80;47.40;;;;;;5029768;28;20187;-69
2022/03/13 04:57:19;;;;;;;22.58;8.95;;;3.70;47.90;;;;;;5030752;28;20112;-70
2022/03/13 04:59:45;;;;;;;17.92;8.13;;;3.80;47.80;;;;;;5030796;28;20519;-71
2022/03/13 05:02:10;;;;;;;14.95;7.47;;;3.80;47.90;;;;;;5030844;28;20397;-71
2022/03/13 05:04:38;;;;;;;18.77;7.40;;;3.50;48.10;;;;;;5031219;28;20017;-70
2022/03/13 05:07:04;;;;;;;19.60;8.13;;;3.50;47.40;;;;;;5030689;28;20040;-72
2022/03/13 05:09:29;;;;;;;21.02;8.25;;;3.50;47.20;;;;;;5030518;28;20025;-70
2022/03/13 05:11:55;;;;;;;19.35;7.65;;;3.50;47.20;;;;;;5030403;28;20044;-69
2022/03/13 05:14:21;;;;;;;20.80;7.72;;;3.60;47.30;;;;;;5030472;28;20057;-71
2022/03/13 05:16:46;;;;;;;21.70;8.20;;;3.60;47.20;;;;;;5031286;28;20036;-71
2022/03/13 05:19:12;;;;;;;15.35;7.35;;;3.60;47.40;;;;;;5030651;28;20026;-71
2022/03/13 05:21:38;;;;;;;19.20;8.02;;;3.50;47.50;;;;;;5030520;28;20436;-71
2022/03/13 05:24:04;;;;;;;16.85;7.18;;;3.60;47.60;;;;;;5030468;28;20074;-69
2022/03/13 05:26:29;;;;;;;21.65;8.02;;;3.50;47.20;;;;;;5029427;28;20053;-71
2022/03/13 05:28:55;;;;;;;17.13;7.28;;;3.50;47.20;;;;;;5030366;28;20060;-71
2022/03/13 05:31:20;;;;;;;19.80;6.93;;;3.50;47.10;;;;;;5030822;28;20025;-69
2022/03/13 05:33:46;;;;;;;14.00;7.32;;;3.40;47.40;;;;;;5030388;28;20109;-71
2022/03/13 05:36:13;;;;;;;16.65;7.82;;;3.50;47.70;;;;;;5030491;28;20033;-71
2022/03/13 05:38:38;;;;;;;22.45;8.30;;;3.50;47.60;;;;;;5030380;28;20360;-70
2022/03/13 05:41:10;;;;;;;14.52;7.45;;;3.50;47.90;;;;;;5030229;28;20041;-71
2022/03/13 05:43:40;;;;;;;15.23;7.10;;;3.40;48.00;;;;;;5029708;28;20179;-71
2022/03/13 05:46:06;;;;;;;16.90;7.35;;;3.40;47.80;;;;;;5030327;28;20526;-70
2022/03/13 05:48:32;;;;;;;23.75;7.40;;;3.50;47.90;;;;;;5029236;28;20061;-71
2022/03/13 05:50:58;;;;;;;19.02;8.00;;;3.60;47.50;;;;;;5030360;28;20034;-70
2022/03/13 05:53:23;;;;;;;15.20;7.40;;;3.60;47.00;;;;;;5030303;28;20092;-70
2022/03/13 05:55:49;;;;;;;20.38;8.45;;;3.60;47.00;;;;;;5030721;28;20030;-70
2022/03/13 05:58:15;;;;;;;19.63;7.35;;;3.50;46.80;;;;;;5033831;28;20044;-70
2022/03/13 06:00:41;;;;;;;15.95;7.13;;;3.40;46.90;;;;;;5033910;28;20033;-69
2022/03/13 06:03:08;;;;;;;20.02;7.15;;;3.60;46.40;;;;;;5032856;28;20638;-70
2022/03/13 06:05:35;;;;;;;14.90;6.70;;;3.70;45.80;;;;;;5033773;28;20041;-71
2022/03/13 06:08:01;;;;;;;19.03;6.83;;;3.80;45.70;;;;;;5033742;28;20028;-71
2022/03/13 06:10:26;;;;;;;24.50;7.68;;;3.70;46.10;;;;;;5034139;28;20025;-70
2022/03/13 06:12:52;;;;;;;18.90;7.03;;;3.60;46.30;;;;;;5033689;28;20116;-71
2022/03/13 06:15:18;;;;;;;13.60;6.38;;;3.60;46.20;;;;;;5033762;28;20119;-70
2022/03/13 06:17:46;;;;;;;13.88;7.05;;;3.60;45.80;;;;;;5033559;28;20053;-71
2022/03/13 06:20:14;;;;;;;16.65;7.40;;;3.60;45.90;;;;;;5033360;28;20033;-69
2022/03/13 06:22:42;;;;;;;;;;;3.50;46.00;;;;;;5034371;28;20021;-72
2022/03/13 06:25:09;;;;;;;16.10;6.90;;;3.60;46.10;;;;;;5033504;28;19919;-70
2022/03/13 06:27:36;;;;;;;21.40;7.33;;;3.50;46.20;;;;;;5033426;28;20030;-70
2022/03/13 06:30:13;;;;;;;14.05;6.40;;;3.70;46.50;;;;;;5032309;28;20270;-70
2022/03/13 06:32:43;;;;;;;26.03;8.00;;;3.60;46.30;;;;;;5033417;28;20434;-69
2022/03/13 06:35:10;;;;;;;17.77;7.57;;;3.70;46.10;;;;;;5033233;28;20091;-69
2022/03/13 06:37:40;;;;;;;22.10;7.87;;;3.80;45.90;;;;;;5033589;28;20443;-71
2022/03/13 06:40:07;;;;;;;18.85;7.75;;;3.90;45.70;;;;;;5032023;28;20092;-70
2022/03/13 06:42:33;;;;;;;24.30;7.25;;;3.90;45.50;;;;;;5033087;28;20502;-69
2022/03/13 06:44:59;;;;;;;18.75;7.88;;;3.90;45.80;;;;;;5033065;28;20120;-70
2022/03/13 06:47:25;;;;;;;17.27;7.68;;;3.90;45.70;;;;;;5032925;28;20582;-71
2022/03/13 06:49:50;;;;;;;22.83;7.65;;;4.00;45.50;;;;;;5033563;28;20398;-70
2022/03/13 06:52:16;;;;;;;15.00;7.25;;;4.20;45.60;;;;;;5033156;28;20529;-69
2022/03/13 06:54:43;;;;;;;17.55;7.60;;;4.10;45.40;;;;;;5032878;28;20060;-69
2022/03/13 06:57:09;;;;;;;14.50;6.78;;;4.20;45.20;;;;;;5032819;28;20034;-69
2022/03/13 06:59:34;;;;;;;18.98;7.22;;;4.30;44.90;;;;;;5032824;28;20484;-69
2022/03/13 07:02:00;;;;;;;14.10;7.43;;;4.40;44.70;;;;;;5031750;28;20067;-68
2022/03/13 07:04:26;;;;;;;15.38;7.78;;;4.40;44.70;;;;;;5033253;28;20079;-70
2022/03/13 07:06:51;;;;;;;16.70;7.60;;;4.40;44.70;;;;;;5032418;28;20037;-70
2022/03/13 07:09:17;;;;;;;18.20;7.72;;;4.50;44.90;;;;;;5032673;28;20503;-70
2022/03/13 07:11:45;;;;;;;17.38;8.07;;;4.50;44.90;;;;;;5032635;28;20045;-69
2022/03/13 07:14:11;;;;;;;18.40;7.63;;;4.40;44.90;;;;;;5032633;28;20017;-68
2022/03/13 07:16:37;;;;;;;12.88;7.35;;;4.50;44.70;;;;;;5033025;28;20036;-68
2022/03/13 07:19:03;;;;;;;17.67;7.65;;;4.60;44.70;;;;;;5032566;28;20026;-70
2022/03/13 07:21:29;;;;;;;14.73;8.20;;;4.60;44.60;;;;;;5032494;28;20128;-70
2022/03/13 07:23:54;;;;;;;15.27;7.60;;;4.60;44.50;;;;;;5032552;28;20120;-71
2022/03/13 07:26:20;;;;;;;19.25;8.00;;;4.60;44.50;;;;;;5032177;28;20029;-70
2022/03/13 07:28:46;;;;;;;17.83;8.02;;;4.60;44.40;;;;;;5033073;28;20444;-72
2022/03/13 07:31:12;;;;;;;21.45;8.38;;;4.70;44.90;;;;;;5032156;28;20459;-72
2022/03/13 07:33:37;;;;;;;14.02;7.18;;;4.60;44.40;;;;;;5031977;28;20033;-70
2022/03/13 07:36:09;;;;;;;17.58;7.43;;;4.60;44.50;;;;;;5032109;28;20379;-71
2022/03/13 07:38:34;;;;;;;17.58;8.20;;;4.70;44.60;;;;;;5031069;28;20429;-73
2022/03/13 07:41:00;;;;;;;14.13;6.90;;;4.80;44.50;;;;;;5031919;28;20025;-71
2022/03/13 07:43:25;;;;;;;19.40;7.78;;;4.90;44.50;;;;;;5032817;28;20128;-71
2022/03/13 07:45:51;;;;;;;20.55;9.15;;;5.00;44.20;;;;;;5031000;28;20021;-71
2022/03/13 07:48:17;;;;;;;18.58;7.82;;;5.00;43.90;;;;;;5030799;28;20128;-72
2022/03/13 07:50:42;;;;;;;14.60;6.72;;;5.00;44.40;;;;;;5032008;28;20038;-71
2022/03/13 07:53:08;;;;;;;16.67;7.60;;;5.00;44.00;;;;;;5031641;28;20112;-72
2022/03/13 07:55:33;;;;;;;15.85;6.57;;;5.20;43.90;;;;;;5031075;28;20033;-71
2022/03/13 07:57:59;;;;;;;17.17;7.93;;;5.30;44.00;;;;;;5030439;28;20030;-71
2022/03/13 08:00:25;;;;;;;17.80;7.47;;;5.40;43.80;;;;;;5030727;28;20113;-70
2022/03/13 08:02:52;;;;;;;25.10;8.30;;;5.50;43.60;;;;;;5030379;28;20478;-71
2022/03/13 08:05:19;;;;;;;20.27;7.43;;;5.60;43.70;;;;;;5031785;28;20529;-71
2022/03/13 08:07:49;;;;;;;15.48;6.80;;;5.60;43.30;;;;;;5031928;28;20021;-71
2022/03/13 08:10:20;;;;;;;14.48;6.47;;;5.60;42.90;;;;;;5031465;28;20091;-70
2022/03/13 08:12:48;;;;;;;17.60;6.97;;;5.70;42.80;;;;;;5031499;28;20060;-73
2022/03/13 08:15:13;;;;;;;14.13;7.13;;;5.80;43.00;;;;;;5031334;28;20026;-71
2022/03/13 08:17:39;;;;;;;15.82;7.13;;;5.90;43.00;;;;;;5031448;28;20088;-71
2022/03/13 08:20:05;;;;;;;15.57;7.18;;;6.00;42.90;;;;;;5030626;28;20128;-70
2022/03/13 08:22:31;;;;;;;18.02;7.75;;;6.00;42.90;;;;;;5031700;28;20099;-71
2022/03/13 08:24:57;;;;;;;16.10;7.40;;;6.10;42.60;;;;;;5031368;28;20479;-70
2022/03/13 08:27:23;;;;;;;15.55;8.07;;;6.20;42.60;;;;;;5031114;28;20033;-69
2022/03/13 08:29:49;;;;;;;13.70;7.15;;;6.30;42.50;;;;;;5031093;28;20095;-71
2022/03/13 08:32:16;;;;;;;15.82;7.35;;;6.30;42.40;;;;;;5030945;28;20037;-70
2022/03/13 08:34:44;;;;;;;22.08;7.55;;;6.50;42.50;;;;;;5031313;28;20025;-77
2022/03/13 08:37:10;;;;;;;13.95;7.22;;;6.50;42.30;;;;;;5026619;28;20030;-75
2022/03/13 08:39:36;;;;;;;20.80;7.13;;;6.70;42.10;;;;;;5011423;28;20626;-73
2022/03/13 08:42:05;;;;;;;15.55;7.25;;;6.80;41.90;;;;;;5011244;28;20109;-72
2022/03/13 08:44:31;;;;;;;15.55;7.30;;;6.90;42.10;;;;;;5011263;28;20034;-71
2022/03/13 08:46:58;;;;;;;15.82;7.35;;;6.90;41.60;;;;;;5009869;28;20437;-71
2022/03/13 08:49:24;;;;;;;13.57;7.20;;;7.10;42.10;;;;;;5010553;28;20096;-70
2022/03/13 08:51:50;;;;;;;15.18;6.60;;;7.20;41.80;;;;;;5010891;28;20525;-71
2022/03/13 08:54:16;;;;;;;19.58;8.02;;;7.40;41.40;;;;;;5009963;28;20125;-70
2022/03/13 08:56:42;;;;;;;15.48;6.82;;;7.50;41.00;;;;;;5011129;28;20404;-72
2022/03/13 08:59:08;;;;;;;20.88;7.47;;;7.60;41.60;;;;;;5010949;28;20017;-73
2022/03/13 09:01:34;;;;;;;15.68;7.55;;;7.80;41.00;;;;;;5010142;28;20059;-70
2022/03/13 09:04:00;;;;;;;13.85;6.72;;;8.10;40.80;;;;;;5011183;28;20502;-70
2022/03/13 09:06:25;;;;;;;19.00;7.93;;;9.70;40.10;;;;;;5011165;28;20209;-70
2022/03/13 09:08:51;;;;;;;20.48;7.43;;;11.30;37.10;;;;;;5011338;28;20054;-71
2022/03/13 09:11:17;;;;;;;19.25;7.22;;;13.40;36.80;;;;;;5010827;28;20034;-70
2022/03/13 09:13:43;;;;;;;27.02;8.98;;;14.80;33.90;;;;;;5010261;28;20028;-70
2022/03/13 09:16:12;;;;;;;19.65;8.10;;;16.40;32.50;;;;;;5010888;28;20038;-70
2022/03/13 09:18:38;;;;;;;19.15;7.80;;;17.70;31.60;;;;;;5010951;28;20026;-71
2022/03/13 09:21:13;;;;;;;22.13;8.18;;;19.00;30.00;;;;;;5011100;28;20057;-71
2022/03/13 09:23:38;;;;;;;17.02;8.52;;;20.10;29.30;;;;;;5010928;28;20411;-71
2022/03/13 09:26:13;;;;;;;13.18;7.45;;;21.00;28.60;;;;;;5009830;28;20470;-72
2022/03/13 09:28:38;;;;;;;16.05;7.22;;;20.40;27.50;;;;;;5011525;28;20414;-71
2022/03/13 09:31:13;;;;;;;17.52;6.68;;;20.40;27.80;;;;;;5012662;28;20117;-72
2022/03/13 09:33:39;;;;;;;15.80;7.13;;;20.80;26.80;;;;;;5014346;28;20030;-73
2022/03/13 09:36:17;;;;;;;15.63;7.43;;;21.30;26.70;;;;;;5014674;28;20104;-73
2022/03/13 09:38:43;;;;;;;15.88;7.65;;;21.30;26.00;;;;;;5014581;28;20040;-70
2022/03/13 09:41:12;;;;;;;15.10;7.95;;;22.30;26.20;;;;;;5014316;28;20022;-72
2022/03/13 09:43:39;;;;;;;12.90;6.90;;;22.50;25.90;;;;;;5013996;28;20399;-73
2022/03/13 09:46:17;;;;;;;12.38;8.07;;;22.50;25.30;;;;;;5013354;28;20030;-70
2022/03/13 09:48:43;;;;;;;16.15;8.00;;;22.40;25.50;;;;;;5014203;28;20505;-70
2022/03/13 09:51:11;;;;;;;14.55;8.30;;;22.90;25.50;;;;;;5014187;28;20033;-71
2022/03/13 09:53:38;;;;;;;14.18;7.43;;;23.00;25.50;;;;;;5012911;28;20522;-72
2022/03/13 09:56:12;;;;;;;15.35;7.90;;;22.60;24.80;;;;;;5012973;28;20463;-73
2022/03/13 09:58:39;;;;;;;17.63;7.35;;;23.00;25.20;;;;;;5014363;28;20685;-72
2022/03/13 10:01:14;;;;;;;13.47;7.03;;;23.20;25.00;;;;;;5014202;28;20076;-70
2022/03/13 10:03:40;;;;;;;14.80;9.43;;;23.10;24.50;;;;;;5013959;28;20080;-70
2022/03/13 10:06:15;;;;;;;12.25;6.53;;;23.20;24.30;;;;;;5013943;28;20125;-70
2022/03/13 10:08:41;;;;;;;13.13;7.18;;;23.50;24.50;;;;;;5013896;28;20030;-69
2022/03/13 10:11:12;;;;;;;13.35;6.85;;;23.90;24.40;;;;;;5013921;28;20134;-70
2022/03/13 10:13:43;;;;;;;10.02;7.00;;;23.90;24.50;;;;;;5014314;28;20073;-70
2022/03/13 10:16:19;;;;;;;13.60;6.63;;;25.40;24.00;;;;;;5013997;28;20046;-72
2022/03/13 10:18:46;;;;;;;14.27;6.55;;;26.00;23.60;;;;;;5014037;28;20026;-74
2022/03/13 10:21:17;;;;;;;10.80;6.72;;;26.20;23.30;;;;;;5013830;28;20026;-72
2022/03/13 10:23:43;;;;;;;12.80;6.82;;;26.60;23.00;;;;;;5012561;28;20372;-72
2022/03/13 10:26:12;;;;;;;11.15;6.57;;;26.50;22.70;;;;;;5013520;28;20093;-71
2022/03/13 10:28:40;;;;;;;11.27;6.80;;;26.30;23.10;;;;;;5013862;28;20029;-71
2022/03/13 10:31:16;;;;;;;12.98;6.82;;;26.10;22.80;;;;;;5012235;28;20487;-73
2022/03/13 10:33:42;;;;;;;12.55;6.00;;;26.90;22.80;;;;;;5013671;28;20034;-81
2022/03/13 10:36:35;;;;;;;11.93;6.90;;;26.70;22.60;;;;;;5013489;28;20041;-73
2022/03/13 10:39:02;;;;;;;11.10;6.47;;;26.50;22.70;;;;;;5013308;28;20033;-75
2022/03/13 10:41:45;;;;;;;11.07;6.78;;;27.40;22.60;;;;;;5013238;28;20049;-71
2022/03/13 10:44:13;;;;;;;13.63;6.93;;;27.80;22.20;;;;;;5013215;28;20087;-72
2022/03/13 10:46:40;;;;;;;11.63;7.25;;;27.10;22.60;;;;;;5013735;28;20101;-74
2022/03/13 10:49:09;;;;;;;13.25;6.90;;;26.40;22.20;;;;;;5013298;28;20061;-71
2022/03/13 10:51:44;;;;;;;11.43;7.13;;;24.90;22.60;;;;;;5013282;28;20113;-72
2022/03/13 10:54:29;;;;;;;11.43;6.80;;;26.70;23.00;;;;;;5013047;28;20132;-74
2022/03/13 10:57:09;;;;;;;10.55;7.18;;;27.30;22.70;;;;;;5012972;28;20037;-72
2022/03/13 10:59:35;;;;;;;12.07;7.15;;;27.10;22.70;;;;;;5012890;28;20026;-71
2022/03/13 11:02:24;;;;;;;15.48;7.45;;;27.00;22.60;;;;;;5012919;28;20057;-72
2022/03/13 11:04:52;;;;;;;10.50;6.90;;;27.60;22.20;;;;;;5013244;28;20068;-73
2022/03/13 11:07:18;;;;;;;;;;;27.50;22.20;;;;;;5013638;28;20038;-72
2022/03/13 11:09:44;;;;;;;15.77;7.55;;;28.00;22.20;;;;;;5012783;28;19935;-71
2022/03/13 11:12:17;;;;;;;11.02;6.93;;;27.10;21.90;;;;;;5012770;28;20034;-73
2022/03/13 11:14:45;;;;;;;9.93;6.15;;;26.70;22.00;;;;;;5012817;28;20022;-73
2022/03/13 11:17:11;;;;;;;;;;;26.00;22.30;;;;;;5013072;28;20018;-76
2022/03/13 11:19:39;;;;;;;10.68;5.85;;;25.90;22.50;;;;;;5012097;28;19909;-74
2022/03/13 11:22:06;;;;;;;12.23;6.53;;;25.80;22.60;;;;;;5012682;28;20104;-75
2022/03/13 11:24:32;;;;;;;15.80;7.13;;;25.20;22.50;;;;;;5012615;28;20034;-74
2022/03/13 11:26:58;;;;;;;11.70;7.00;;;25.30;23.10;;;;;;5012559;28;20045;-74
2022/03/13 11:29:42;;;;;;;11.10;6.18;;;25.00;22.60;;;;;;5012310;28;20110;-75
2022/03/13 11:32:34;;;;;;;7.55;5.97;;;25.20;22.80;;;;;;5012172;28;20036;-76
2022/03/13 11:35:13;;;;;;;11.95;6.65;;;26.50;22.30;;;;;;5012180;28;20026;-74
2022/03/13 11:37:40;;;;;;;14.55;7.35;;;26.10;22.40;;;;;;5012298;28;20029;-74
2022/03/13 11:40:07;;;;;;;12.27;6.47;;;26.10;22.70;;;;;;5012224;28;20076;-75
2022/03/13 11:42:47;;;;;;;9.20;6.03;;;26.30;23.60;;;;;;5012106;28;20484;-75
2022/03/13 11:45:31;;;;;;;10.05;6.32;;;25.90;22.70;;;;;;5012142;28;20431;-73
2022/03/13 11:48:20;;;;;;;12.80;6.25;;;25.40;23.00;;;;;;5011011;28;20431;-72
2022/03/13 11:50:54;;;;;;;10.18;6.68;;;24.80;23.00;;;;;;5011825;28;20100;-76
2022/03/13 11:53:23;;;;;;;13.90;6.85;;;24.00;23.50;;;;;;5011397;28;20100;-72
2022/03/13 11:55:57;;;;;;;12.50;6.85;;;23.60;23.70;;;;;;5011717;28;20044;-71
2022/03/13 11:58:43;;;;;;;14.45;6.80;;;22.90;23.80;;;;;;5011910;28;20049;-71
2022/03/13 12:01:29;;;;;;;9.75;6.03;;;21.80;24.70;;;;;;5011901;28;20034;-70
2022/03/13 12:04:01;;;;;;;12.30;6.72;;;21.40;25.00;;;;;;5012001;28;20057;-72
2022/03/13 12:06:56;;;;;;;10.48;6.28;;;21.10;24.80;;;;;;5010794;28;20167;-71
2022/03/13 12:09:44;;;;;;;11.90;6.38;;;20.30;25.00;;;;;;5011387;28;20073;-74
2022/03/13 12:12:15;;;;;;;12.43;6.72;;;20.00;25.90;;;;;;5011655;28;20026;-72
2022/03/13 12:15:04;;;;;;;10.90;6.40;;;19.80;25.50;;;;;;5010231;28;20092;-73
2022/03/13 12:17:46;;;;;;;9.93;5.95;;;19.50;25.50;;;;;;5011490;28;20056;-73
2022/03/13 12:20:24;;;;;;;10.45;6.25;;;19.30;26.00;;;;;;5010324;28;20108;-73
2022/03/13 12:22:53;;;;;;;8.38;5.63;;;19.00;25.90;;;;;;5010641;28;20486;-72
2022/03/13 12:25:32;;;;;;;8.93;6.22;;;18.60;26.50;;;;;;5011310;28;20042;-71
2022/03/13 12:28:00;;;;;;;8.02;5.55;;;18.60;26.30;;;;;;5011259;28;20121;-71
2022/03/13 12:30:30;;;;;;;9.38;5.72;;;18.40;26.40;;;;;;5011226;28;20076;-73
2022/03/13 12:33:00;;;;;;;9.90;6.35;;;18.20;27.10;;;;;;5013172;28;20128;-70
2022/03/13 12:35:26;;;;;;;9.88;6.22;;;18.20;26.80;;;;;;5031519;28;20041;-70
2022/03/13 12:37:57;;;;;;;12.32;6.38;;;18.30;26.90;;;;;;5029989;28;20025;-70
2022/03/13 12:40:24;;;;;;;11.60;6.30;;;18.10;26.90;;;;;;5031601;28;20031;-71
2022/03/13 12:43:01;;;;;;;10.20;6.53;;;18.00;27.30;;;;;;5031198;28;20029;-74
2022/03/13 12:45:27;;;;;;;10.27;6.38;;;17.90;26.80;;;;;;5030055;28;20033;-74
2022/03/13 12:47:59;;;;;;;16.55;6.05;;;17.80;26.80;;;;;;5030633;28;20060;-73
2022/03/13 12:50:25;;;;;;;13.55;6.65;;;17.70;26.80;;;;;;5031126;28;20029;-73